sensor_id;sensor_type;location;lat;lon;timestamp;P1;durP1;ratioP1;P2;durP2;ratioP2
23181;SDS011;11759;51.282;6.642;2023-07-13T00:00:23;637.00;;;274.95;;
23181;SDS011;11759;51.282;6.642;2023-07-13T00:02:51;632.28;;;272.25;;
23181;SDS011;11759;51.282;6.642;2023-07-13T00:05:22;639.40;;;280.98;;
23181;SDS011;11759;51.282;6.642;2023-07-13T00:07:49;627.13;;;254.80;;
23181;SDS011;11759;51.282;6.642;2023-07-13T00:10:17;668.45;;;314.55;;
23181;SDS011;11759;51.282;6.642;2023-07-13T00:12:44;634.05;;;276.58;;
23181;SDS011;11759;51.282;6.642;2023-07-13T00:15:15;671.55;;;320.27;;
23181;SDS011;11759;51.282;6.642;2023-07-13T00:17:49;632.42;;;274.00;;
23181;SDS011;11759;51.282;6.642;2023-07-13T00:20:17;665.70;;;310.63;;
23181;SDS011;11759;51.282;6.642;2023-07-13T00:22:44;628.92;;;266.45;;
23181;SDS011;11759;51.282;6.642;2023-07-13T00:25:11;653.33;;;290.45;;
23181;SDS011;11759;51.282;6.642;2023-07-13T00:27:38;633.80;;;264.27;;
23181;SDS011;11759;51.282;6.642;2023-07-13T00:30:05;651.55;;;285.42;;
23181;SDS011;11759;51.282;6.642;2023-07-13T00:32:32;628.70;;;250.20;;
23181;SDS011;11759;51.282;6.642;2023-07-13T00:34:59;680.95;;;312.75;;
23181;SDS011;11759;51.282;6.642;2023-07-13T00:37:26;630.42;;;262.35;;
23181;SDS011;11759;51.282;6.642;2023-07-13T00:39:53;628.10;;;250.70;;
23181;SDS011;11759;51.282;6.642;2023-07-13T00:42:20;666.25;;;303.83;;
23181;SDS011;11759;51.282;6.642;2023-07-13T00:47:49;624.38;;;242.90;;
23181;SDS011;11759;51.282;6.642;2023-07-13T00:50:16;708.97;;;346.85;;
23181;SDS011;11759;51.282;6.642;2023-07-13T00:52:45;628.40;;;245.02;;
23181;SDS011;11759;51.282;6.642;2023-07-13T00:55:13;700.33;;;338.95;;
23181;SDS011;11759;51.282;6.642;2023-07-13T00:57:41;625.58;;;243.73;;
23181;SDS011;11759;51.282;6.642;2023-07-13T01:00:09;693.30;;;323.63;;
23181;SDS011;11759;51.282;6.642;2023-07-13T01:02:40;625.25;;;245.35;;
23181;SDS011;11759;51.282;6.642;2023-07-13T01:05:09;750.83;;;390.90;;
23181;SDS011;11759;51.282;6.642;2023-07-13T01:07:37;638.10;;;256.52;;
23181;SDS011;11759;51.282;6.642;2023-07-13T01:10:05;639.47;;;258.67;;
23181;SDS011;11759;51.282;6.642;2023-07-13T01:12:32;638.00;;;261.92;;
23181;SDS011;11759;51.282;6.642;2023-07-13T01:15:00;621.28;;;233.88;;
23181;SDS011;11759;51.282;6.642;2023-07-13T01:17:27;623.80;;;245.55;;
23181;SDS011;11759;51.282;6.642;2023-07-13T01:19:55;632.47;;;264.08;;
23181;SDS011;11759;51.282;6.642;2023-07-13T01:22:22;626.38;;;255.38;;
23181;SDS011;11759;51.282;6.642;2023-07-13T01:24:53;640.33;;;272.92;;
23181;SDS011;11759;51.282;6.642;2023-07-13T01:27:21;624.13;;;256.48;;
23181;SDS011;11759;51.282;6.642;2023-07-13T01:29:52;633.65;;;252.27;;
23181;SDS011;11759;51.282;6.642;2023-07-13T01:32:20;622.17;;;245.18;;
23181;SDS011;11759;51.282;6.642;2023-07-13T01:34:54;631.75;;;266.25;;
23181;SDS011;11759;51.282;6.642;2023-07-13T01:37:21;661.00;;;296.45;;
23181;SDS011;11759;51.282;6.642;2023-07-13T01:39:52;666.50;;;290.27;;
23181;SDS011;11759;51.282;6.642;2023-07-13T01:42:19;624.88;;;249.30;;
23181;SDS011;11759;51.282;6.642;2023-07-13T01:44:47;621.38;;;233.32;;
23181;SDS011;11759;51.282;6.642;2023-07-13T01:47:14;633.22;;;268.33;;
23181;SDS011;11759;51.282;6.642;2023-07-13T01:49:40;626.78;;;245.70;;
23181;SDS011;11759;51.282;6.642;2023-07-13T01:52:07;640.30;;;264.55;;
23181;SDS011;11759;51.282;6.642;2023-07-13T01:54:34;619.80;;;235.98;;
23181;SDS011;11759;51.282;6.642;2023-07-13T01:57:01;646.25;;;261.75;;
23181;SDS011;11759;51.282;6.642;2023-07-13T01:59:27;632.85;;;244.32;;
23181;SDS011;11759;51.282;6.642;2023-07-13T02:01:54;625.40;;;246.23;;
23181;SDS011;11759;51.282;6.642;2023-07-13T02:04:21;660.25;;;292.63;;
23181;SDS011;11759;51.282;6.642;2023-07-13T02:06:49;619.95;;;233.05;;
23181;SDS011;11759;51.282;6.642;2023-07-13T02:09:16;633.08;;;251.40;;
23181;SDS011;11759;51.282;6.642;2023-07-13T02:11:43;669.58;;;272.17;;
23181;SDS011;11759;51.282;6.642;2023-07-13T02:14:09;627.03;;;220.38;;
23181;SDS011;11759;51.282;6.642;2023-07-13T02:16:36;611.70;;;214.90;;
23181;SDS011;11759;51.282;6.642;2023-07-13T02:19:03;631.03;;;238.38;;
23181;SDS011;11759;51.282;6.642;2023-07-13T02:21:30;615.00;;;217.80;;
23181;SDS011;11759;51.282;6.642;2023-07-13T02:23:57;633.45;;;244.23;;
23181;SDS011;11759;51.282;6.642;2023-07-13T02:26:25;624.58;;;216.65;;
23181;SDS011;11759;51.282;6.642;2023-07-13T02:28:52;615.40;;;225.35;;
23181;SDS011;11759;51.282;6.642;2023-07-13T02:31:19;643.83;;;245.73;;
23181;SDS011;11759;51.282;6.642;2023-07-13T02:33:46;631.97;;;228.20;;
23181;SDS011;11759;51.282;6.642;2023-07-13T02:36:13;626.45;;;228.10;;
23181;SDS011;11759;51.282;6.642;2023-07-13T02:38:44;621.20;;;218.63;;
23181;SDS011;11759;51.282;6.642;2023-07-13T02:41:11;608.38;;;206.07;;
23181;SDS011;11759;51.282;6.642;2023-07-13T02:43:39;609.20;;;204.70;;
23181;SDS011;11759;51.282;6.642;2023-07-13T02:46:08;618.70;;;210.88;;
23181;SDS011;11759;51.282;6.642;2023-07-13T02:48:36;606.60;;;202.90;;
23181;SDS011;11759;51.282;6.642;2023-07-13T02:51:04;619.33;;;221.32;;
23181;SDS011;11759;51.282;6.642;2023-07-13T02:53:31;647.03;;;251.82;;
23181;SDS011;11759;51.282;6.642;2023-07-13T02:55:58;609.60;;;216.30;;
23181;SDS011;11759;51.282;6.642;2023-07-13T02:58:26;660.58;;;268.20;;
23181;SDS011;11759;51.282;6.642;2023-07-13T03:00:52;611.80;;;210.85;;
23181;SDS011;11759;51.282;6.642;2023-07-13T03:03:20;654.10;;;251.80;;
23181;SDS011;11759;51.282;6.642;2023-07-13T03:05:47;611.03;;;219.13;;
23181;SDS011;11759;51.282;6.642;2023-07-13T03:08:21;630.17;;;227.00;;
23181;SDS011;11759;51.282;6.642;2023-07-13T03:10:58;608.20;;;205.52;;
23181;SDS011;11759;51.282;6.642;2023-07-13T03:13:26;649.40;;;250.20;;
23181;SDS011;11759;51.282;6.642;2023-07-13T03:15:53;614.10;;;216.77;;
23181;SDS011;11759;51.282;6.642;2023-07-13T03:18:20;622.97;;;219.98;;
23181;SDS011;11759;51.282;6.642;2023-07-13T03:20:50;604.60;;;197.50;;
23181;SDS011;11759;51.282;6.642;2023-07-13T03:23:17;626.03;;;219.38;;
23181;SDS011;11759;51.282;6.642;2023-07-13T03:25:45;607.75;;;198.68;;
23181;SDS011;11759;51.282;6.642;2023-07-13T03:28:12;621.05;;;215.55;;
23181;SDS011;11759;51.282;6.642;2023-07-13T03:30:40;612.03;;;212.98;;
23181;SDS011;11759;51.282;6.642;2023-07-13T03:33:07;689.67;;;288.63;;
23181;SDS011;11759;51.282;6.642;2023-07-13T03:35:34;617.08;;;222.75;;
23181;SDS011;11759;51.282;6.642;2023-07-13T03:38:01;637.00;;;240.50;;
23181;SDS011;11759;51.282;6.642;2023-07-13T03:40:28;602.30;;;190.18;;
23181;SDS011;11759;51.282;6.642;2023-07-13T03:42:55;638.00;;;232.88;;
23181;SDS011;11759;51.282;6.642;2023-07-13T03:45:22;608.72;;;197.40;;
23181;SDS011;11759;51.282;6.642;2023-07-13T03:47:48;601.60;;;190.73;;
23181;SDS011;11759;51.282;6.642;2023-07-13T03:50:17;660.30;;;264.17;;
23181;SDS011;11759;51.282;6.642;2023-07-13T03:52:44;607.70;;;210.85;;
23181;SDS011;11759;51.282;6.642;2023-07-13T03:55:15;644.40;;;252.50;;
23181;SDS011;11759;51.282;6.642;2023-07-13T03:57:41;606.58;;;209.93;;
23181;SDS011;11759;51.282;6.642;2023-07-13T04:00:08;646.70;;;255.88;;
23181;SDS011;11759;51.282;6.642;2023-07-13T04:02:41;606.00;;;211.02;;
23181;SDS011;11759;51.282;6.642;2023-07-13T04:05:08;680.38;;;276.83;;
23181;SDS011;11759;51.282;6.642;2023-07-13T04:07:34;601.42;;;193.00;;
23181;SDS011;11759;51.282;6.642;2023-07-13T04:10:01;615.72;;;206.32;;
23181;SDS011;11759;51.282;6.642;2023-07-13T04:12:29;617.22;;;214.50;;
23181;SDS011;11759;51.282;6.642;2023-07-13T04:14:56;603.25;;;192.23;;
23181;SDS011;11759;51.282;6.642;2023-07-13T04:17:23;663.28;;;262.90;;
23181;SDS011;11759;51.282;6.642;2023-07-13T04:19:50;603.70;;;186.82;;
23181;SDS011;11759;51.282;6.642;2023-07-13T04:22:16;625.58;;;223.85;;
23181;SDS011;11759;51.282;6.642;2023-07-13T04:24:44;603.85;;;199.07;;
23181;SDS011;11759;51.282;6.642;2023-07-13T04:27:11;609.35;;;198.90;;
23181;SDS011;11759;51.282;6.642;2023-07-13T04:29:37;630.45;;;231.18;;
23181;SDS011;11759;51.282;6.642;2023-07-13T04:32:05;605.40;;;210.10;;
23181;SDS011;11759;51.282;6.642;2023-07-13T04:34:31;665.15;;;270.38;;
23181;SDS011;11759;51.282;6.642;2023-07-13T04:36:59;628.85;;;231.07;;
23181;SDS011;11759;51.282;6.642;2023-07-13T04:39:26;621.88;;;220.15;;
23181;SDS011;11759;51.282;6.642;2023-07-13T04:41:52;606.75;;;213.45;;
23181;SDS011;11759;51.282;6.642;2023-07-13T04:44:19;620.30;;;228.43;;
23181;SDS011;11759;51.282;6.642;2023-07-13T04:46:46;608.65;;;204.82;;
23181;SDS011;11759;51.282;6.642;2023-07-13T04:49:13;611.65;;;207.57;;
23181;SDS011;11759;51.282;6.642;2023-07-13T04:51:40;610.70;;;206.70;;
23181;SDS011;11759;51.282;6.642;2023-07-13T04:54:07;603.15;;;204.05;;
23181;SDS011;11759;51.282;6.642;2023-07-13T04:56:34;613.00;;;205.60;;
23181;SDS011;11759;51.282;6.642;2023-07-13T04:59:01;610.22;;;211.10;;
23181;SDS011;11759;51.282;6.642;2023-07-13T05:01:27;699.33;;;300.50;;
23181;SDS011;11759;51.282;6.642;2023-07-13T05:03:54;632.20;;;224.85;;
23181;SDS011;11759;51.282;6.642;2023-07-13T05:06:24;605.40;;;203.63;;
23181;SDS011;11759;51.282;6.642;2023-07-13T05:08:51;608.30;;;207.65;;
23181;SDS011;11759;51.282;6.642;2023-07-13T05:11:18;625.58;;;223.63;;
23181;SDS011;11759;51.282;6.642;2023-07-13T05:13:44;609.95;;;215.90;;
23181;SDS011;11759;51.282;6.642;2023-07-13T05:16:11;627.35;;;226.60;;
23181;SDS011;11759;51.282;6.642;2023-07-13T05:18:38;609.17;;;206.65;;
23181;SDS011;11759;51.282;6.642;2023-07-13T05:21:09;681.25;;;284.73;;
23181;SDS011;11759;51.282;6.642;2023-07-13T05:23:37;635.17;;;238.35;;
23181;SDS011;11759;51.282;6.642;2023-07-13T05:26:05;620.38;;;228.77;;
23181;SDS011;11759;51.282;6.642;2023-07-13T05:28:35;626.20;;;229.05;;
23181;SDS011;11759;51.282;6.642;2023-07-13T05:31:02;615.30;;;218.63;;
23181;SDS011;11759;51.282;6.642;2023-07-13T05:33:29;629.03;;;239.75;;
23181;SDS011;11759;51.282;6.642;2023-07-13T05:35:56;612.42;;;219.82;;
23181;SDS011;11759;51.282;6.642;2023-07-13T05:38:23;667.97;;;277.25;;
23181;SDS011;11759;51.282;6.642;2023-07-13T05:40:50;616.67;;;229.07;;
23181;SDS011;11759;51.282;6.642;2023-07-13T05:43:17;623.08;;;241.30;;
23181;SDS011;11759;51.282;6.642;2023-07-13T05:45:44;623.85;;;237.82;;
23181;SDS011;11759;51.282;6.642;2023-07-13T05:48:11;641.65;;;254.18;;
23181;SDS011;11759;51.282;6.642;2023-07-13T05:50:37;637.72;;;252.00;;
23181;SDS011;11759;51.282;6.642;2023-07-13T05:53:04;617.15;;;236.48;;
23181;SDS011;11759;51.282;6.642;2023-07-13T05:55:31;627.83;;;237.85;;
23181;SDS011;11759;51.282;6.642;2023-07-13T05:57:58;618.85;;;234.00;;
23181;SDS011;11759;51.282;6.642;2023-07-13T06:00:26;620.78;;;231.80;;
23181;SDS011;11759;51.282;6.642;2023-07-13T06:02:53;628.30;;;249.98;;
23181;SDS011;11759;51.282;6.642;2023-07-13T06:05:20;642.65;;;257.85;;
23181;SDS011;11759;51.282;6.642;2023-07-13T06:07:46;632.10;;;253.50;;
23181;SDS011;11759;51.282;6.642;2023-07-13T06:10:13;653.25;;;281.08;;
23181;SDS011;11759;51.282;6.642;2023-07-13T06:12:40;668.95;;;305.30;;
23181;SDS011;11759;51.282;6.642;2023-07-13T06:15:07;650.42;;;278.23;;
23181;SDS011;11759;51.282;6.642;2023-07-13T06:17:34;634.78;;;260.95;;
23181;SDS011;11759;51.282;6.642;2023-07-13T06:20:01;626.17;;;249.23;;
23181;SDS011;11759;51.282;6.642;2023-07-13T06:22:27;656.38;;;287.88;;
23181;SDS011;11759;51.282;6.642;2023-07-13T06:24:55;632.78;;;260.67;;
23181;SDS011;11759;51.282;6.642;2023-07-13T06:27:21;623.00;;;247.93;;
23181;SDS011;11759;51.282;6.642;2023-07-13T06:29:48;634.20;;;262.80;;
23181;SDS011;11759;51.282;6.642;2023-07-13T06:32:15;624.38;;;254.35;;
23181;SDS011;11759;51.282;6.642;2023-07-13T06:34:42;717.33;;;360.20;;
23181;SDS011;11759;51.282;6.642;2023-07-13T06:37:09;629.40;;;273.58;;
23181;SDS011;11759;51.282;6.642;2023-07-13T06:39:36;650.92;;;301.48;;
23181;SDS011;11759;51.282;6.642;2023-07-13T06:42:03;640.40;;;293.10;;
23181;SDS011;11759;51.282;6.642;2023-07-13T06:44:30;642.00;;;293.20;;
23181;SDS011;11759;51.282;6.642;2023-07-13T06:46:57;638.47;;;289.40;;
23181;SDS011;11759;51.282;6.642;2023-07-13T06:49:24;632.15;;;288.35;;
23181;SDS011;11759;51.282;6.642;2023-07-13T06:51:50;665.03;;;315.33;;
23181;SDS011;11759;51.282;6.642;2023-07-13T06:54:17;636.03;;;283.65;;
23181;SDS011;11759;51.282;6.642;2023-07-13T06:56:44;635.08;;;290.42;;
23181;SDS011;11759;51.282;6.642;2023-07-13T06:59:11;639.25;;;286.00;;
23181;SDS011;11759;51.282;6.642;2023-07-13T07:01:38;628.28;;;273.60;;
23181;SDS011;11759;51.282;6.642;2023-07-13T07:04:07;651.17;;;302.67;;
23181;SDS011;11759;51.282;6.642;2023-07-13T07:06:34;635.97;;;280.70;;
23181;SDS011;11759;51.282;6.642;2023-07-13T07:09:00;650.17;;;291.73;;
23181;SDS011;11759;51.282;6.642;2023-07-13T07:11:27;631.65;;;273.10;;
23181;SDS011;11759;51.282;6.642;2023-07-13T07:13:54;684.85;;;338.73;;
23181;SDS011;11759;51.282;6.642;2023-07-13T07:16:20;637.03;;;295.42;;
23181;SDS011;11759;51.282;6.642;2023-07-13T07:18:48;642.35;;;296.55;;
23181;SDS011;11759;51.282;6.642;2023-07-13T07:21:15;642.67;;;309.23;;
23181;SDS011;11759;51.282;6.642;2023-07-13T07:23:42;638.85;;;309.55;;
23181;SDS011;11759;51.282;6.642;2023-07-13T07:26:09;651.10;;;312.65;;
23181;SDS011;11759;51.282;6.642;2023-07-13T07:28:36;644.58;;;318.60;;
23181;SDS011;11759;51.282;6.642;2023-07-13T07:31:06;651.15;;;321.95;;
23181;SDS011;11759;51.282;6.642;2023-07-13T07:33:36;638.67;;;312.83;;
23181;SDS011;11759;51.282;6.642;2023-07-13T07:36:03;708.10;;;370.63;;
23181;SDS011;11759;51.282;6.642;2023-07-13T07:38:33;647.50;;;323.73;;
23181;SDS011;11759;51.282;6.642;2023-07-13T07:41:02;661.22;;;330.38;;
23181;SDS011;11759;51.282;6.642;2023-07-13T07:43:32;640.13;;;307.50;;
23181;SDS011;11759;51.282;6.642;2023-07-13T07:45:59;715.58;;;381.10;;
23181;SDS011;11759;51.282;6.642;2023-07-13T07:48:28;643.88;;;317.33;;
23181;SDS011;11759;51.282;6.642;2023-07-13T07:50:55;683.83;;;358.05;;
23181;SDS011;11759;51.282;6.642;2023-07-13T07:53:22;643.28;;;319.58;;
23181;SDS011;11759;51.282;6.642;2023-07-13T07:55:49;651.30;;;334.77;;
23181;SDS011;11759;51.282;6.642;2023-07-13T07:58:19;648.97;;;326.92;;
23181;SDS011;11759;51.282;6.642;2023-07-13T08:00:48;653.22;;;327.17;;
23181;SDS011;11759;51.282;6.642;2023-07-13T08:03:18;665.30;;;372.25;;
23181;SDS011;11759;51.282;6.642;2023-07-13T08:05:48;649.97;;;350.60;;
23181;SDS011;11759;51.282;6.642;2023-07-13T08:08:34;648.70;;;350.90;;
23181;SDS011;11759;51.282;6.642;2023-07-13T08:11:02;652.72;;;353.42;;
23181;SDS011;11759;51.282;6.642;2023-07-13T08:13:50;656.97;;;349.80;;
23181;SDS011;11759;51.282;6.642;2023-07-13T08:16:20;665.03;;;370.60;;
23181;SDS011;11759;51.282;6.642;2023-07-13T08:18:48;659.38;;;379.88;;
23181;SDS011;11759;51.282;6.642;2023-07-13T08:21:15;699.25;;;434.20;;
23181;SDS011;11759;51.282;6.642;2023-07-13T08:23:42;664.85;;;408.52;;
23181;SDS011;11759;51.282;6.642;2023-07-13T08:26:09;730.03;;;480.88;;
23181;SDS011;11759;51.282;6.642;2023-07-13T08:28:35;664.75;;;419.50;;
23181;SDS011;11759;51.282;6.642;2023-07-13T08:31:03;691.35;;;439.65;;
23181;SDS011;11759;51.282;6.642;2023-07-13T08:33:30;660.53;;;403.40;;
23181;SDS011;11759;51.282;6.642;2023-07-13T08:35:57;690.60;;;433.50;;
23181;SDS011;11759;51.282;6.642;2023-07-13T08:38:24;663.10;;;416.30;;
23181;SDS011;11759;51.282;6.642;2023-07-13T08:40:52;671.88;;;425.65;;
23181;SDS011;11759;51.282;6.642;2023-07-13T08:43:34;663.97;;;421.95;;
23181;SDS011;11759;51.282;6.642;2023-07-13T08:46:47;684.05;;;429.15;;
23181;SDS011;11759;51.282;6.642;2023-07-13T08:48:58;678.40;;;438.83;;
23181;SDS011;11759;51.282;6.642;2023-07-13T08:51:35;662.33;;;413.73;;
23181;SDS011;11759;51.282;6.642;2023-07-13T08:54:08;683.03;;;448.17;;
23181;SDS011;11759;51.282;6.642;2023-07-13T08:56:39;664.42;;;431.30;;
23181;SDS011;11759;51.282;6.642;2023-07-13T08:59:09;681.13;;;436.45;;
23181;SDS011;11759;51.282;6.642;2023-07-13T09:04:22;667.97;;;437.33;;
23181;SDS011;11759;51.282;6.642;2023-07-13T09:12:02;673.92;;;427.45;;
23181;SDS011;11759;51.282;6.642;2023-07-13T09:14:50;666.92;;;426.10;;
23181;SDS011;11759;51.282;6.642;2023-07-13T09:17:24;664.78;;;428.38;;
23181;SDS011;11759;51.282;6.642;2023-07-13T09:19:56;673.78;;;435.23;;
23181;SDS011;11759;51.282;6.642;2023-07-13T09:22:29;667.05;;;445.70;;
23181;SDS011;11759;51.282;6.642;2023-07-13T09:25:05;673.88;;;430.02;;
23181;SDS011;11759;51.282;6.642;2023-07-13T09:27:45;666.65;;;414.70;;
23181;SDS011;11759;51.282;6.642;2023-07-13T09:32:50;663.08;;;418.85;;
23181;SDS011;11759;51.282;6.642;2023-07-13T09:35:19;696.72;;;456.95;;
23181;SDS011;11759;51.282;6.642;2023-07-13T09:37:48;659.17;;;420.58;;
23181;SDS011;11759;51.282;6.642;2023-07-13T09:40:23;732.17;;;507.83;;
23181;SDS011;11759;51.282;6.642;2023-07-13T09:42:54;677.63;;;456.35;;
23181;SDS011;11759;51.282;6.642;2023-07-13T09:45:29;666.45;;;437.48;;
23181;SDS011;11759;51.282;6.642;2023-07-13T09:48:00;684.78;;;469.77;;
23181;SDS011;11759;51.282;6.642;2023-07-13T09:50:30;675.35;;;462.83;;
23181;SDS011;11759;51.282;6.642;2023-07-13T09:52:57;684.25;;;471.35;;
23181;SDS011;11759;51.282;6.642;2023-07-13T09:55:28;673.92;;;486.23;;
23181;SDS011;11759;51.282;6.642;2023-07-13T09:58:05;689.60;;;499.25;;
23181;SDS011;11759;51.282;6.642;2023-07-13T10:00:38;674.65;;;475.77;;
23181;SDS011;11759;51.282;6.642;2023-07-13T10:05:40;673.00;;;498.40;;
23181;SDS011;11759;51.282;6.642;2023-07-13T10:08:18;746.50;;;574.95;;
23181;SDS011;11759;51.282;6.642;2023-07-13T10:13:28;677.10;;;501.60;;
23181;SDS011;11759;51.282;6.642;2023-07-13T10:16:01;696.30;;;532.78;;
23181;SDS011;11759;51.282;6.642;2023-07-13T10:18:28;678.17;;;526.33;;
23181;SDS011;11759;51.282;6.642;2023-07-13T10:20:58;700.90;;;558.60;;
23181;SDS011;11759;51.282;6.642;2023-07-13T10:23:55;743.28;;;613.67;;
23181;SDS011;11759;51.282;6.642;2023-07-13T10:26:29;763.00;;;621.53;;
23181;SDS011;11759;51.282;6.642;2023-07-13T10:29:00;675.72;;;526.08;;
23181;SDS011;11759;51.282;6.642;2023-07-13T10:31:30;730.28;;;564.53;;
23181;SDS011;11759;51.282;6.642;2023-07-13T10:33:57;676.10;;;522.42;;
23181;SDS011;11759;51.282;6.642;2023-07-13T10:36:29;706.10;;;538.33;;
23181;SDS011;11759;51.282;6.642;2023-07-13T10:39:01;671.92;;;490.10;;
23181;SDS011;11759;51.282;6.642;2023-07-13T10:41:30;687.20;;;520.92;;
23181;SDS011;11759;51.282;6.642;2023-07-13T10:44:00;672.55;;;527.25;;
23181;SDS011;11759;51.282;6.642;2023-07-13T10:46:27;691.53;;;541.20;;
23181;SDS011;11759;51.282;6.642;2023-07-13T10:48:56;673.75;;;521.28;;
23181;SDS011;11759;51.282;6.642;2023-07-13T10:51:25;686.60;;;528.72;;
23181;SDS011;11759;51.282;6.642;2023-07-13T10:54:11;669.45;;;518.05;;
23181;SDS011;11759;51.282;6.642;2023-07-13T10:56:46;666.97;;;506.23;;
23181;SDS011;11759;51.282;6.642;2023-07-13T10:59:26;686.17;;;525.45;;
23181;SDS011;11759;51.282;6.642;2023-07-13T11:01:58;676.42;;;524.03;;
23181;SDS011;11759;51.282;6.642;2023-07-13T11:04:27;694.67;;;530.05;;
23181;SDS011;11759;51.282;6.642;2023-07-13T11:06:57;675.83;;;525.42;;
23181;SDS011;11759;51.282;6.642;2023-07-13T11:12:01;700.97;;;623.50;;
23181;SDS011;11759;51.282;6.642;2023-07-13T11:19:51;831.90;;;750.85;;
23181;SDS011;11759;51.282;6.642;2023-07-13T11:22:24;856.53;;;774.05;;
23181;SDS011;11759;51.282;6.642;2023-07-13T11:24:54;3.63;;;1.73;;
23181;SDS011;11759;51.282;6.642;2023-07-13T11:27:42;915.25;;;829.90;;
23181;SDS011;11759;51.282;6.642;2023-07-13T11:30:21;891.50;;;806.50;;
23181;SDS011;11759;51.282;6.642;2023-07-13T11:32:51;872.88;;;790.65;;
23181;SDS011;11759;51.282;6.642;2023-07-13T11:35:35;883.75;;;800.13;;
23181;SDS011;11759;51.282;6.642;2023-07-13T11:38:12;871.50;;;788.90;;
23181;SDS011;11759;51.282;6.642;2023-07-13T11:40:43;856.92;;;775.08;;
23181;SDS011;11759;51.282;6.642;2023-07-13T11:43:16;842.92;;;760.58;;
23181;SDS011;11759;51.282;6.642;2023-07-13T11:45:43;878.55;;;791.50;;
23181;SDS011;11759;51.282;6.642;2023-07-13T11:48:20;817.90;;;736.65;;
23181;SDS011;11759;51.282;6.642;2023-07-13T11:50:53;822.40;;;740.97;;
23181;SDS011;11759;51.282;6.642;2023-07-13T11:53:22;797.67;;;717.70;;
23181;SDS011;11759;51.282;6.642;2023-07-13T11:55:52;769.53;;;689.63;;
23181;SDS011;11759;51.282;6.642;2023-07-13T11:58:20;780.05;;;700.38;;
23181;SDS011;11759;51.282;6.642;2023-07-13T12:00:50;824.33;;;742.30;;
23181;SDS011;11759;51.282;6.642;2023-07-13T12:03:20;849.03;;;767.72;;
23181;SDS011;11759;51.282;6.642;2023-07-13T12:05:58;908.28;;;824.15;;
23181;SDS011;11759;51.282;6.642;2023-07-13T12:08:29;893.92;;;810.60;;
23181;SDS011;11759;51.282;6.642;2023-07-13T12:10:57;885.65;;;802.65;;
23181;SDS011;11759;51.282;6.642;2023-07-13T12:13:27;884.63;;;801.80;;
23181;SDS011;11759;51.282;6.642;2023-07-13T12:15:56;907.72;;;820.88;;
23181;SDS011;11759;51.282;6.642;2023-07-13T12:18:23;856.20;;;774.58;;
23181;SDS011;11759;51.282;6.642;2023-07-13T12:20:56;824.67;;;744.13;;
23181;SDS011;11759;51.282;6.642;2023-07-13T12:23:29;803.00;;;723.35;;
23181;SDS011;11759;51.282;6.642;2023-07-13T12:25:57;824.63;;;743.58;;
23181;SDS011;11759;51.282;6.642;2023-07-13T12:28:38;852.25;;;771.50;;
23181;SDS011;11759;51.282;6.642;2023-07-13T12:34:02;810.55;;;728.38;;
23181;SDS011;11759;51.282;6.642;2023-07-13T12:36:31;755.22;;;676.92;;
23181;SDS011;11759;51.282;6.642;2023-07-13T12:39:00;746.28;;;667.53;;
23181;SDS011;11759;51.282;6.642;2023-07-13T12:41:31;737.80;;;659.65;;
23181;SDS011;11759;51.282;6.642;2023-07-13T12:43:59;741.90;;;661.13;;
23181;SDS011;11759;51.282;6.642;2023-07-13T12:46:26;731.53;;;653.00;;
23181;SDS011;11759;51.282;6.642;2023-07-13T12:48:56;757.45;;;678.08;;
23181;SDS011;11759;51.282;6.642;2023-07-13T12:51:43;784.10;;;704.85;;
23181;SDS011;11759;51.282;6.642;2023-07-13T12:54:16;826.60;;;745.42;;
23181;SDS011;11759;51.282;6.642;2023-07-13T12:56:43;783.47;;;704.47;;
23181;SDS011;11759;51.282;6.642;2023-07-13T12:59:16;767.88;;;688.42;;
23181;SDS011;11759;51.282;6.642;2023-07-13T13:01:45;797.95;;;718.40;;
23181;SDS011;11759;51.282;6.642;2023-07-13T13:04:13;875.42;;;790.28;;
23181;SDS011;11759;51.282;6.642;2023-07-13T13:06:40;854.75;;;773.60;;
23181;SDS011;11759;51.282;6.642;2023-07-13T13:09:12;906.38;;;818.88;;
23181;SDS011;11759;51.282;6.642;2023-07-13T13:11:40;850.60;;;769.53;;
23181;SDS011;11759;51.282;6.642;2023-07-13T13:14:07;858.10;;;775.30;;
23181;SDS011;11759;51.282;6.642;2023-07-13T13:16:37;805.80;;;725.47;;
23181;SDS011;11759;51.282;6.642;2023-07-13T13:19:24;797.92;;;713.78;;
23181;SDS011;11759;51.282;6.642;2023-07-13T13:21:53;702.15;;;625.13;;
23181;SDS011;11759;51.282;6.642;2023-07-13T13:24:23;733.25;;;611.38;;
23181;SDS011;11759;51.282;6.642;2023-07-13T13:26:52;675.65;;;537.10;;
23181;SDS011;11759;51.282;6.642;2023-07-13T13:29:20;731.83;;;583.70;;
23181;SDS011;11759;51.282;6.642;2023-07-13T13:31:51;676.97;;;545.88;;
23181;SDS011;11759;51.282;6.642;2023-07-13T13:34:19;692.85;;;607.58;;
23181;SDS011;11759;51.282;6.642;2023-07-13T13:36:46;716.15;;;638.78;;
23181;SDS011;11759;51.282;6.642;2023-07-13T13:39:21;757.08;;;677.08;;
23181;SDS011;11759;51.282;6.642;2023-07-13T13:41:50;746.58;;;668.45;;
23181;SDS011;11759;51.282;6.642;2023-07-13T13:44:18;749.22;;;670.15;;
23181;SDS011;11759;51.282;6.642;2023-07-13T13:46:46;760.45;;;681.13;;
23181;SDS011;11759;51.282;6.642;2023-07-13T13:49:15;821.20;;;739.67;;
23181;SDS011;11759;51.282;6.642;2023-07-13T13:51:44;821.88;;;741.70;;
23181;SDS011;11759;51.282;6.642;2023-07-13T13:54:12;864.80;;;782.35;;
23181;SDS011;11759;51.282;6.642;2023-07-13T13:56:41;894.88;;;811.75;;
23181;SDS011;11759;51.282;6.642;2023-07-13T13:59:08;937.38;;;851.95;;
23181;SDS011;11759;51.282;6.642;2023-07-13T14:01:35;938.65;;;854.00;;
23181;SDS011;11759;51.282;6.642;2023-07-13T14:04:02;932.30;;;847.13;;
23181;SDS011;11759;51.282;6.642;2023-07-13T14:06:30;929.90;;;845.65;;
23181;SDS011;11759;51.282;6.642;2023-07-13T14:08:56;921.65;;;837.33;;
23181;SDS011;11759;51.282;6.642;2023-07-13T14:11:23;930.65;;;845.08;;
23181;SDS011;11759;51.282;6.642;2023-07-13T14:13:54;897.28;;;814.20;;
23181;SDS011;11759;51.282;6.642;2023-07-13T14:16:25;893.85;;;810.97;;
23181;SDS011;11759;51.282;6.642;2023-07-13T14:18:54;897.65;;;813.88;;
23181;SDS011;11759;51.282;6.642;2023-07-13T14:21:25;878.50;;;796.58;;
23181;SDS011;11759;51.282;6.642;2023-07-13T14:23:53;868.80;;;786.28;;
23181;SDS011;11759;51.282;6.642;2023-07-13T14:26:22;863.20;;;779.92;;
23181;SDS011;11759;51.282;6.642;2023-07-13T14:28:51;798.90;;;718.92;;
23181;SDS011;11759;51.282;6.642;2023-07-13T14:31:20;769.22;;;689.58;;
23181;SDS011;11759;51.282;6.642;2023-07-13T14:33:47;779.20;;;694.85;;
23181;SDS011;11759;51.282;6.642;2023-07-13T14:36:25;689.47;;;601.58;;